Darstellungsparameter: Aktuell verwendete Einstellungen:
Skalierung der Graphiken ... ?
xyx+y,   Skalierungsfaktor:      Skalierung: Modus: x, Faktor: 1
Darstellungszeitraum ... ?
Vom - - bis: - -   Zeitraum: 28.09.2019 - 28.09.2019
Min/Max/Avg-Anzeige ... ?
Zeige MMA aktuell
Zeige MMA Monat
Zeige MMA alles
Zeige --A aktuell
Zeige --A Monat
Zeige --A alles
Keine MMA-Anzeige
MMA:
Keine MMA-Graphiken
MMA-Basis: 28.09.2019 - 28.09.2019
Quicknavigation für Darstellung... ?
Tage:      1T, 2T, 3T, 5T -1T -2T -3T -5T +1T +2T +3T +5T
Wochen: 1W, 2W, 3W -1W -2W -3W +1W +2W +3W
Monate: 1M, 3M, 6M -1M -3M -6M +1M +3M +6M
Jahre:    1J, 3J, 5J, 10J -1J -3J -5J -10J +1J +3J +5J +10J
Nutze für die Darstellung ... ?
Originaldaten oder Mittelwerte auf ...
Stundenbasis Tagesbasis Wochenbasis
Monatsbasis Jahresbasis      Datenbasis: Original-Daten
Darstellen als:
Statistik (Auto) Statistik J:M      Darstellung:
Zur Graphik,    zurück zur Übersicht aller Sensoren.
 
Tabellarische Datenbersicht: ?
 
Sensor: Nr:Datum:Temp:Feuchte:Taupunkt:
Aussen-T/F 1 28-09-2019 00:00:00 13 C 94 % 12.06 C
2 28-09-2019 00:05:00 12.9 C 94 % 11.96 C
3 28-09-2019 00:10:00 12.9 C 94 % 11.96 C
4 28-09-2019 00:15:00 12.9 C 94 % 11.96 C
5 28-09-2019 00:20:00 12.9 C 95 % 12.12 C
6 28-09-2019 00:25:00 12.9 C 94 % 11.96 C
7 28-09-2019 00:30:00 12.9 C 95 % 12.12 C
8 28-09-2019 00:35:00 12.9 C 95 % 12.12 C
9 28-09-2019 00:40:00 12.8 C 95 % 12.02 C
10 28-09-2019 00:45:00 12.8 C 95 % 12.02 C
11 28-09-2019 00:50:00 12.8 C 95 % 12.02 C
12 28-09-2019 00:55:00 12.8 C 95 % 12.02 C
13 28-09-2019 01:00:00 12.8 C 95 % 12.02 C
14 28-09-2019 01:05:00 12.8 C 95 % 12.02 C
15 28-09-2019 01:10:00 12.9 C 95 % 12.12 C
16 28-09-2019 01:15:00 12.8 C 95 % 12.02 C
17 28-09-2019 01:20:00 12.8 C 95 % 12.02 C
18 28-09-2019 01:25:00 12.7 C 95 % 11.92 C
19 28-09-2019 01:30:00 12.8 C 95 % 12.02 C
20 28-09-2019 01:35:00 12.8 C 95 % 12.02 C
21 28-09-2019 01:40:00 12.9 C 96 % 12.28 C
22 28-09-2019 01:45:00 13.1 C 95 % 12.32 C
23 28-09-2019 01:50:00 13.2 C 95 % 12.42 C
24 28-09-2019 01:55:00 13.3 C 95 % 12.52 C
25 28-09-2019 02:00:00 13.6 C 95 % 12.81 C
Sensor: Nr:Datum:Temp:Feuchte:Taupunkt:
Aussen-T/F 26 28-09-2019 02:05:00 13.6 C 94 % 12.65 C
27 28-09-2019 02:10:00 13.7 C 94 % 12.75 C
28 28-09-2019 02:15:00 13.9 C 93 % 12.79 C
29 28-09-2019 02:20:00 14.2 C 92 % 12.92 C
30 28-09-2019 02:25:00 14.3 C 91 % 12.85 C
31 28-09-2019 02:30:00 14.4 C 91 % 12.95 C
32 28-09-2019 02:35:00 14.4 C 90 % 12.78 C
33 28-09-2019 02:40:00 14.5 C 90 % 12.88 C
34 28-09-2019 02:45:00 14.5 C 89 % 12.71 C
35 28-09-2019 02:50:00 14.7 C 89 % 12.91 C
36 28-09-2019 02:55:00 14.8 C 88 % 12.83 C
37 28-09-2019 03:00:00 14.8 C 88 % 12.83 C
38 28-09-2019 03:05:00 14.8 C 88 % 12.83 C
39 28-09-2019 03:10:00 14.8 C 89 % 13.01 C
40 28-09-2019 03:15:00 14.8 C 89 % 13.01 C
41 28-09-2019 03:20:00 14.9 C 89 % 13.1 C
42 28-09-2019 03:25:00 14.9 C 89 % 13.1 C
43 28-09-2019 03:30:00 14.9 C 89 % 13.1 C
44 28-09-2019 03:35:00 15 C 89 % 13.2 C
45 28-09-2019 03:40:00 14.9 C 90 % 13.28 C
46 28-09-2019 03:45:00 14.8 C 90 % 13.18 C
47 28-09-2019 03:50:00 14.7 C 91 % 13.25 C
48 28-09-2019 03:55:00 14.6 C 91 % 13.15 C
49 28-09-2019 04:00:00 14.4 C 91 % 12.95 C
50 28-09-2019 04:05:00 14.3 C 91 % 12.85 C
Sensor: Nr:Datum:Temp:Feuchte:Taupunkt:
Aussen-T/F 51 28-09-2019 04:10:00 14.2 C 92 % 12.92 C
52 28-09-2019 04:15:00 14.1 C 92 % 12.82 C
53 28-09-2019 04:20:00 14 C 92 % 12.72 C
54 28-09-2019 04:25:00 13.9 C 93 % 12.79 C
55 28-09-2019 04:30:00 13.9 C 93 % 12.79 C
56 28-09-2019 04:35:00 13.9 C 93 % 12.79 C
57 28-09-2019 04:40:00 13.9 C 93 % 12.79 C
58 28-09-2019 04:45:00 13.9 C 93 % 12.79 C
59 28-09-2019 04:50:00 14 C 93 % 12.89 C
60 28-09-2019 04:55:00 14 C 92 % 12.72 C
61 28-09-2019 05:00:00 13.9 C 92 % 12.62 C
62 28-09-2019 05:05:00 13.9 C 92 % 12.62 C
63 28-09-2019 05:10:00 13.9 C 92 % 12.62 C
64 28-09-2019 05:15:00 13.9 C 92 % 12.62 C
65 28-09-2019 05:20:00 13.8 C 92 % 12.52 C
66 28-09-2019 05:25:00 13.9 C 92 % 12.62 C
67 28-09-2019 05:30:00 13.9 C 92 % 12.62 C
68 28-09-2019 05:35:00 13.9 C 92 % 12.62 C
69 28-09-2019 05:40:00 13.9 C 92 % 12.62 C
70 28-09-2019 05:45:00 14.1 C 92 % 12.82 C
71 28-09-2019 05:50:00 14.1 C 92 % 12.82 C
72 28-09-2019 05:55:00 14.2 C 91 % 12.75 C
73 28-09-2019 06:00:00 14.3 C 91 % 12.85 C
74 28-09-2019 06:05:00 14.3 C 91 % 12.85 C
75 28-09-2019 06:10:00 14.4 C 91 % 12.95 C
Sensor: Nr:Datum:Temp:Feuchte:Taupunkt:
Aussen-T/F 76 28-09-2019 06:15:00 14.5 C 91 % 13.05 C
77 28-09-2019 06:20:00 14.5 C 91 % 13.05 C
78 28-09-2019 06:25:00 14.4 C 90 % 12.78 C
79 28-09-2019 06:30:00 14.4 C 90 % 12.78 C
80 28-09-2019 06:35:00 14.4 C 90 % 12.78 C
81 28-09-2019 06:40:00 14.4 C 90 % 12.78 C
82 28-09-2019 06:45:00 14.5 C 91 % 13.05 C
83 28-09-2019 06:50:00 14.4 C 91 % 12.95 C
84 28-09-2019 06:55:00 14.3 C 91 % 12.85 C
85 28-09-2019 07:00:00 14.3 C 91 % 12.85 C
86 28-09-2019 07:05:00 14.2 C 92 % 12.92 C
87 28-09-2019 07:10:00 14.1 C 92 % 12.82 C
88 28-09-2019 07:15:00 14.1 C 92 % 12.82 C
89 28-09-2019 07:20:00 14.1 C 93 % 12.99 C
90 28-09-2019 07:25:00 14.1 C 93 % 12.99 C
91 28-09-2019 07:30:00 14.1 C 93 % 12.99 C
92 28-09-2019 07:35:00 14.1 C 93 % 12.99 C
93 28-09-2019 07:40:00 14.1 C 94 % 13.15 C
94 28-09-2019 07:45:00 14 C 94 % 13.05 C
95 28-09-2019 07:50:00 14 C 94 % 13.05 C
96 28-09-2019 07:55:00 14 C 94 % 13.05 C
97 28-09-2019 08:00:00 14 C 94 % 13.05 C
98 28-09-2019 08:05:00 13.9 C 94 % 12.95 C
99 28-09-2019 08:10:00 13.9 C 94 % 12.95 C
100 28-09-2019 08:15:00 13.9 C 94 % 12.95 C
Sensor: Nr:Datum:Temp:Feuchte:Taupunkt:
Aussen-T/F 101 28-09-2019 08:20:00 13.9 C 94 % 12.95 C
102 28-09-2019 08:25:00 13.9 C 93 % 12.79 C
103 28-09-2019 08:30:00 14 C 93 % 12.89 C
104 28-09-2019 08:35:00 13.9 C 93 % 12.79 C
105 28-09-2019 08:40:00 13.9 C 93 % 12.79 C
106 28-09-2019 08:45:00 13.8 C 93 % 12.69 C
107 28-09-2019 08:50:00 13.8 C 93 % 12.69 C
108 28-09-2019 08:55:00 13.8 C 92 % 12.52 C
109 28-09-2019 09:00:00 13.9 C 92 % 12.62 C
110 28-09-2019 09:05:00 13.9 C 92 % 12.62 C
111 28-09-2019 09:10:00 14.1 C 91 % 12.65 C
112 28-09-2019 09:15:00 14.2 C 91 % 12.75 C
113 28-09-2019 09:20:00 14.3 C 90 % 12.68 C
114 28-09-2019 09:25:00 14.4 C 91 % 12.95 C
115 28-09-2019 09:30:00 14.4 C 90 % 12.78 C
116 28-09-2019 09:35:00 14.6 C 90 % 12.98 C
117 28-09-2019 09:40:00 14.6 C 89 % 12.81 C
118 28-09-2019 09:45:00 14.6 C 88 % 12.64 C
119 28-09-2019 09:50:00 14.6 C 89 % 12.81 C
120 28-09-2019 09:55:00 14.7 C 88 % 12.73 C
121 28-09-2019 10:00:00 14.7 C 88 % 12.73 C
122 28-09-2019 10:05:00 14.8 C 88 % 12.83 C
123 28-09-2019 10:10:00 15.1 C 87 % 12.95 C
124 28-09-2019 10:15:00 15.2 C 86 % 12.88 C
125 28-09-2019 10:20:00 15.3 C 86 % 12.97 C
Sensor: Nr:Datum:Temp:Feuchte:Taupunkt:
Aussen-T/F 126 28-09-2019 10:25:00 15.4 C 86 % 13.07 C
127 28-09-2019 10:30:00 15.5 C 86 % 13.17 C
128 28-09-2019 10:35:00 15.6 C 85 % 13.09 C
129 28-09-2019 10:40:00 15.7 C 84 % 13.01 C
130 28-09-2019 10:45:00 15.8 C 84 % 13.1 C
131 28-09-2019 10:50:00 15.8 C 82 % 12.74 C
132 28-09-2019 10:55:00 15.9 C 82 % 12.83 C
133 28-09-2019 11:00:00 15.9 C 81 % 12.65 C
134 28-09-2019 11:05:00 15.9 C 81 % 12.65 C
135 28-09-2019 11:10:00 16 C 81 % 12.74 C
136 28-09-2019 11:15:00 16.2 C 81 % 12.94 C
137 28-09-2019 11:20:00 16.3 C 81 % 13.04 C
138 28-09-2019 11:25:00 16.3 C 80 % 12.85 C
139 28-09-2019 11:30:00 16.4 C 81 % 13.13 C
140 28-09-2019 11:35:00 16.5 C 79 % 12.85 C
141 28-09-2019 11:40:00 16.6 C 79 % 12.95 C
142 28-09-2019 11:45:00 16.5 C 79 % 12.85 C
143 28-09-2019 11:50:00 16.5 C 81 % 13.23 C
144 28-09-2019 11:55:00 16.6 C 80 % 13.14 C
145 28-09-2019 12:00:00 16.6 C 79 % 12.95 C
146 28-09-2019 12:05:00 16.7 C 80 % 13.23 C
147 28-09-2019 12:10:00 16.8 C 80 % 13.33 C
148 28-09-2019 12:15:00 16.8 C 79 % 13.14 C
149 28-09-2019 12:20:00 16.9 C 78 % 13.04 C
150 28-09-2019 12:25:00 16.9 C 79 % 13.24 C
Sensor: Nr:Datum:Temp:Feuchte:Taupunkt:
Aussen-T/F 151 28-09-2019 12:30:00 16.9 C 79 % 13.24 C
152 28-09-2019 12:35:00 16.9 C 78 % 13.04 C
153 28-09-2019 12:40:00 16.8 C 78 % 12.94 C
154 28-09-2019 12:45:00 16.9 C 78 % 13.04 C
155 28-09-2019 12:50:00 16.9 C 78 % 13.04 C
156 28-09-2019 12:55:00 17.1 C 77 % 13.04 C
157 28-09-2019 13:00:00 17.2 C 78 % 13.33 C
158 28-09-2019 13:05:00 17.2 C 77 % 13.14 C
159 28-09-2019 13:10:00 17.2 C 77 % 13.14 C
160 28-09-2019 13:15:00 17.2 C 77 % 13.14 C
161 28-09-2019 13:20:00 17.2 C 77 % 13.14 C
162 28-09-2019 13:25:00 17.3 C 76 % 13.03 C
163 28-09-2019 13:30:00 17.2 C 77 % 13.14 C
164 28-09-2019 13:35:00 17.1 C 77 % 13.04 C
165 28-09-2019 13:40:00 17.2 C 77 % 13.14 C
166 28-09-2019 13:45:00 17.2 C 77 % 13.14 C
167 28-09-2019 13:50:00 17.3 C 77 % 13.23 C
168 28-09-2019 13:55:00 17.3 C 78 % 13.43 C
169 28-09-2019 14:00:00 17.4 C 78 % 13.53 C
170 28-09-2019 14:05:00 17.4 C 77 % 13.33 C
171 28-09-2019 14:10:00 17.4 C 77 % 13.33 C
172 28-09-2019 14:15:00 17.4 C 78 % 13.53 C
173 28-09-2019 14:20:00 17.5 C 77 % 13.43 C
174 28-09-2019 14:25:00 17.4 C 75 % 12.93 C
175 28-09-2019 14:30:00 17.5 C 77 % 13.43 C
Sensor: Nr:Datum:Temp:Feuchte:Taupunkt:
Aussen-T/F 176 28-09-2019 14:35:00 17.6 C 76 % 13.32 C
177 28-09-2019 14:40:00 17.7 C 76 % 13.42 C
178 28-09-2019 14:45:00 17.7 C 75 % 13.22 C
179 28-09-2019 14:50:00 17.5 C 76 % 13.23 C
180 28-09-2019 14:55:00 17.4 C 76 % 13.13 C
181 28-09-2019 15:00:00 17.5 C 77 % 13.43 C
182 28-09-2019 15:05:00 17.5 C 76 % 13.23 C
183 28-09-2019 15:10:00 17.4 C 76 % 13.13 C
184 28-09-2019 15:15:00 17.4 C 77 % 13.33 C
185 28-09-2019 15:20:00 17.3 C 78 % 13.43 C
186 28-09-2019 15:25:00 17.3 C 77 % 13.23 C
187 28-09-2019 15:30:00 17.1 C 77 % 13.04 C
188 28-09-2019 15:35:00 17 C 78 % 13.14 C
189 28-09-2019 15:40:00 17 C 78 % 13.14 C
190 28-09-2019 15:45:00 16.9 C 78 % 13.04 C
191 28-09-2019 15:50:00 16.9 C 78 % 13.04 C
192 28-09-2019 15:55:00 16.7 C 78 % 12.85 C
193 28-09-2019 16:00:00 16.7 C 80 % 13.23 C
194 28-09-2019 16:05:00 16.7 C 80 % 13.23 C
195 28-09-2019 16:10:00 16.8 C 80 % 13.33 C
196 28-09-2019 16:15:00 17 C 79 % 13.33 C
197 28-09-2019 16:20:00 17.4 C 78 % 13.53 C
198 28-09-2019 16:25:00 17.6 C 77 % 13.52 C
199 28-09-2019 16:30:00 17.7 C 76 % 13.42 C
200 28-09-2019 16:35:00 17.7 C 77 % 13.62 C
Sensor: Nr:Datum:Temp:Feuchte:Taupunkt:
Aussen-T/F 201 28-09-2019 16:40:00 17.7 C 77 % 13.62 C
202 28-09-2019 16:45:00 17.7 C 76 % 13.42 C
203 28-09-2019 16:50:00 17.7 C 76 % 13.42 C
204 28-09-2019 16:55:00 17.6 C 76 % 13.32 C
205 28-09-2019 17:00:00 17.6 C 76 % 13.32 C
206 28-09-2019 17:05:00 17.6 C 76 % 13.32 C
207 28-09-2019 17:10:00 17.4 C 76 % 13.13 C
208 28-09-2019 17:15:00 17.1 C 77 % 13.04 C
209 28-09-2019 17:20:00 17.1 C 78 % 13.24 C
210 28-09-2019 17:25:00 17.3 C 78 % 13.43 C
211 28-09-2019 17:30:00 17.8 C 76 % 13.52 C
212 28-09-2019 17:35:00 18.1 C 74 % 13.4 C
213 28-09-2019 17:40:00 18.2 C 75 % 13.7 C
214 28-09-2019 17:45:00 18.2 C 74 % 13.49 C
215 28-09-2019 17:50:00 18.2 C 74 % 13.49 C
216 28-09-2019 17:55:00 18 C 74 % 13.3 C
217 28-09-2019 18:00:00 17.8 C 74 % 13.11 C
218 28-09-2019 18:05:00 17.8 C 75 % 13.31 C
219 28-09-2019 18:10:00 17.8 C 75 % 13.31 C
220 28-09-2019 18:15:00 17.7 C 76 % 13.42 C
221 28-09-2019 18:20:00 17.5 C 76 % 13.23 C
222 28-09-2019 18:25:00 17.4 C 76 % 13.13 C
223 28-09-2019 18:30:00 17.3 C 77 % 13.23 C
224 28-09-2019 18:35:00 17 C 77 % 12.94 C
225 28-09-2019 18:40:00 16.7 C 78 % 12.85 C
Sensor: Nr:Datum:Temp:Feuchte:Taupunkt:
Aussen-T/F 226 28-09-2019 18:45:00 16.4 C 78 % 12.56 C
227 28-09-2019 18:50:00 16.2 C 78 % 12.36 C
228 28-09-2019 18:55:00 16.1 C 79 % 12.46 C
229 28-09-2019 19:00:00 16.1 C 79 % 12.46 C
230 28-09-2019 19:05:00 15.9 C 79 % 12.27 C
231 28-09-2019 19:10:00 15.9 C 80 % 12.46 C
232 28-09-2019 19:15:00 15.8 C 80 % 12.36 C
233 28-09-2019 19:20:00 15.7 C 81 % 12.45 C
234 28-09-2019 19:25:00 15.6 C 81 % 12.35 C
235 28-09-2019 19:30:00 15.6 C 81 % 12.35 C
236 28-09-2019 19:35:00 15.6 C 82 % 12.54 C
237 28-09-2019 19:40:00 15.6 C 81 % 12.35 C
238 28-09-2019 19:45:00 15.6 C 81 % 12.35 C
239 28-09-2019 19:50:00 15.5 C 81 % 12.26 C
240 28-09-2019 19:55:00 15.5 C 81 % 12.26 C
241 28-09-2019 20:00:00 15.6 C 81 % 12.35 C
242 28-09-2019 20:05:00 15.6 C 81 % 12.35 C
243 28-09-2019 20:10:00 15.6 C 81 % 12.35 C
244 28-09-2019 20:15:00 15.5 C 81 % 12.26 C
245 28-09-2019 20:20:00 15.3 C 82 % 12.25 C
246 28-09-2019 20:25:00 15.2 C 82 % 12.15 C
247 28-09-2019 20:30:00 15.1 C 83 % 12.24 C
248 28-09-2019 20:35:00 15 C 83 % 12.14 C
249 28-09-2019 20:40:00 14.9 C 83 % 12.04 C
250 28-09-2019 20:45:00 15 C 84 % 12.32 C
Sensor: Nr:Datum:Temp:Feuchte:Taupunkt:
Aussen-T/F 251 28-09-2019 20:50:00 15 C 83 % 12.14 C
252 28-09-2019 20:55:00 15.1 C 83 % 12.24 C
253 28-09-2019 21:00:00 15.1 C 83 % 12.24 C
254 28-09-2019 21:05:00 15 C 83 % 12.14 C
255 28-09-2019 21:10:00 14.9 C 83 % 12.04 C
256 28-09-2019 21:15:00 14.8 C 83 % 11.94 C
257 28-09-2019 21:20:00 14.8 C 84 % 12.12 C
258 28-09-2019 21:25:00 14.8 C 83 % 11.94 C
259 28-09-2019 21:30:00 14.9 C 83 % 12.04 C
260 28-09-2019 21:35:00 15.1 C 82 % 12.05 C
261 28-09-2019 21:40:00 15.1 C 82 % 12.05 C
262 28-09-2019 21:45:00 15 C 82 % 11.95 C
263 28-09-2019 21:50:00 15.1 C 82 % 12.05 C
264 28-09-2019 21:55:00 15.1 C 82 % 12.05 C
265 28-09-2019 22:00:00 15.2 C 81 % 11.96 C
266 28-09-2019 22:05:00 15.3 C 81 % 12.06 C
267 28-09-2019 22:10:00 15.3 C 81 % 12.06 C
268 28-09-2019 22:15:00 15.3 C 81 % 12.06 C
269 28-09-2019 22:20:00 15.4 C 81 % 12.16 C
270 28-09-2019 22:25:00 15.3 C 81 % 12.06 C
271 28-09-2019 22:30:00 15.3 C 81 % 12.06 C
272 28-09-2019 22:35:00 15.2 C 81 % 11.96 C
273 28-09-2019 22:40:00 15.1 C 81 % 11.87 C
274 28-09-2019 22:45:00 14.9 C 82 % 11.86 C
275 28-09-2019 22:50:00 14.7 C 82 % 11.66 C
Sensor: Nr:Datum:Temp:Feuchte:Taupunkt:
Aussen-T/F 276 28-09-2019 22:55:00 14.6 C 83 % 11.75 C
277 28-09-2019 23:00:00 14.4 C 84 % 11.73 C
278 28-09-2019 23:05:00 14.3 C 84 % 11.64 C
279 28-09-2019 23:10:00 14.1 C 85 % 11.62 C
280 28-09-2019 23:15:00 14 C 85 % 11.52 C
281 28-09-2019 23:20:00 13.9 C 86 % 11.6 C
282 28-09-2019 23:25:00 13.9 C 86 % 11.6 C
283 28-09-2019 23:30:00 14 C 86 % 11.7 C
284 28-09-2019 23:35:00 14.2 C 85 % 11.72 C
285 28-09-2019 23:40:00 14.4 C 84 % 11.73 C
286 28-09-2019 23:45:00 14.3 C 84 % 11.64 C
287 28-09-2019 23:50:00 14.2 C 84 % 11.54 C
288 28-09-2019 23:55:00 14.1 C 85 % 11.62 C

Legende:
   Min
   Max


Maximal/Minimal-Werte vom 28.09.2019 - 28.09.2019

Sensor Min Max Avg
Temp
(Aussen-T/F)
12.7 °C
28-09-2019  01:25:00
18.2 °C
28-09-2019  17:40:00
15.31 °C
Feuchte
(Aussen-T/F)
74 %
28-09-2019  17:35:00
96 %
28-09-2019  01:40:00
84.93 %
Taupunkt
(Aussen-T/F)
11.52 C
28-09-2019  23:15:00
13.7 C
28-09-2019  17:40:00
12.69 C

Die Daten stammen von einer Davis Vantage Pro 2 Wetter-Station und werden unter Linux mit der Software wview2wettercgi und aufbereitet. Alle Angaben erfolgen ohne Gewähr für ihre Vollständigkeit oder Richtigkeit.
Kontakt: Rainer Krienke krienke@uni-koblenz.de . Meine Webseiten an der Uni Koblenz oder privat.
Version: $Revision: 0.78 $